Charlevoix, MI

1:21 PM EST on November 28, 2014 (GMT -0500)
Charlevoix Municipal | Change Station
CLOSE
Current Station
Airport
Location: Charlevoix,
Elevation: 669 ft
Nearby Weather Stations

Elev 669 ft 45.30 °N, 85.27 °W | Updated 7 minutes ago

Overcast
Overcast
23 °F
Feels Like 13 °F
N
8
Wind Variable Wind from SSE

Today
High -- | Low -- °F
--% Chance of Precip.
Yesterday
High -- | Low -- °F
Precip. -- in
7:56 AM 5:01 PM
Waxing Crescent, 42% visible
Pressure 30.16 in
Visibility 4.0 miles
Clouds Mostly Cloudy 2000 ft
Overcast 3100 ft
Windchill 13 °F
Dew Point 18 °F
Humidity 82%
Rainfall 0.00 in
Snow Depth Not available.
UV 1 out of 12
Pollen .10 out of 12
Air Quality Not available.
Flu Activity Not available.
METAR KCVX 281814Z AUTO 15007KT 4SM -SN BKN020 OVC031 M05/M08 A3016 RMK AO2 T10521078

More Conditions Fewer Conditions

Pressure 30.16 in
Visibility 4.0 miles
Clouds Mostly Cloudy 2000 ft
Overcast 3100 ft
Windchill 13 °F
Dew Point 18 °F
Humidity 82%
Rainfall 0.00 in
Snow Depth Not available.
UV 1 out of 12
Pollen .10 out of 12
Air Quality Not available.
Flu Activity Not available.
METAR KCVX 281814Z AUTO 15007KT 4SM -SN BKN020 OVC031 M05/M08 A3016 RMK AO2 T10521078

More Conditions Fewer Conditions

Nowcast | as of 1:00 PM EST on November 28, 2014

At 2 PM...snow likely. Temperature 25. South winds 9 mph. At 4 PM...snow. Temperature 25. South winds 9 mph. At 6 PM...snow. Temperature 25. South winds 10 mph. At 8 PM...snow. Temperature 25. Southeast winds 10 mph.

×

10-Day Weather Forecast

Almanac

Astronomy

Nov. 28, 2014 Rise Set
Actual Time
Civil Twilight
Nautical Twilight
Astronomical Twilight
Moon
Length of Visible Light
Length of Day
Tomorrow will be .
, % of the Moon is Illuminated

Today's Extremes

State Highs State Lows

Community

WunderPhotos

Upload Photos

1,774,251 photos uploaded!

WunderBlogs® & News

Nearby

Air Quality

  Air Quality AQ Index Pollutant
Not available.

Snow Depth

Station Depth Elevation

Earthquake Activity

City Distance Mag. Time & Date
Minimum magnitude displayed is 2.5.

Coastal Water Temperatures

Place Temperature

Nearby Weather Stations